Time,TemperatureF,DewpointF,PressureIn,WindDirection,WindDirectionDegrees,WindSpeedMPH,WindSpeedGustMPH,Humidity,HourlyPrecipIn,Conditions,Clouds,dailyrainin,SolarRadiationWatts/m^2,SoftwareType,DateUTC
2013-01-18 00:04:00,33.0,32.0,30.53,NNW,337,3.0,12.0,97,0.01,,,1.40,0.000000,,2013-01-18 05:04:00,
2013-01-18 00:33:00,32.0,30.0,30.57,WNW,293,3.0,13.0,92,0.00,,,1.39,0.000000,,2013-01-18 05:33:00,
2013-01-18 00:43:00,32.0,30.0,30.57,WNW,293,3.0,13.0,92,0.00,,,1.39,0.000000,,2013-01-18 05:43:00,
2013-01-18 00:53:00,32.0,30.0,30.57,WNW,293,3.0,13.0,92,0.00,,,1.39,0.000000,,2013-01-18 05:53:00,
2013-01-18 01:02:00,32.0,30.0,30.57,WNW,293,3.0,13.0,92,0.00,,,1.39,0.000000,,2013-01-18 06:02:00,
2013-01-18 01:33:00,31.0,28.0,30.59,WNW,303,6.0,17.0,87,0.00,,,1.39,0.000000,,2013-01-18 06:33:00,
2013-01-18 01:43:00,31.0,28.0,30.59,WNW,303,6.0,17.0,87,0.00,,,1.39,0.000000,,2013-01-18 06:43:00,
2013-01-18 01:53:00,31.0,28.0,30.59,WNW,303,6.0,17.0,87,0.00,,,1.39,0.000000,,2013-01-18 06:53:00,
2013-01-18 02:02:00,31.0,28.0,30.59,WNW,303,6.0,17.0,87,0.00,,,1.39,0.000000,,2013-01-18 07:02:00,
2013-01-18 02:33:00,30.0,27.0,30.62,NW,311,3.0,15.0,88,0.00,,,1.38,0.000000,,2013-01-18 07:33:00,
2013-01-18 02:42:00,30.0,27.0,30.62,NW,311,3.0,15.0,88,0.00,,,1.38,0.000000,,2013-01-18 07:42:00,
2013-01-18 02:52:00,30.0,27.0,30.62,NW,311,3.0,15.0,88,0.00,,,1.38,0.000000,,2013-01-18 07:52:00,
2013-01-18 03:02:00,30.0,27.0,30.62,NW,311,3.0,15.0,88,0.00,,,1.38,0.000000,,2013-01-18 08:02:00,
2013-01-18 03:33:00,29.0,26.0,30.63,NW,323,2.0,11.0,89,0.00,,,1.36,0.000000,,2013-01-18 08:33:00,
2013-01-18 03:43:00,29.0,26.0,30.63,NW,323,2.0,11.0,89,0.00,,,1.36,0.000000,,2013-01-18 08:43:00,
2013-01-18 03:53:00,29.0,26.0,30.63,NW,323,2.0,11.0,89,0.00,,,1.36,0.000000,,2013-01-18 08:53:00,
2013-01-18 04:03:00,29.0,26.0,30.63,NW,323,2.0,11.0,89,0.00,,,1.36,0.000000,,2013-01-18 09:03:00,
2013-01-18 04:33:00,28.0,26.0,30.64,SSW,212,1.0,8.0,91,0.00,,,1.33,0.000000,,2013-01-18 09:33:00,
2013-01-18 04:43:00,28.0,26.0,30.64,SSW,212,1.0,8.0,91,0.00,,,1.33,0.000000,,2013-01-18 09:43:00,
2013-01-18 04:53:00,28.0,26.0,30.64,SSW,212,1.0,8.0,91,0.00,,,1.33,0.000000,,2013-01-18 09:53:00,
2013-01-18 05:03:00,28.0,26.0,30.64,SSW,212,1.0,8.0,91,0.00,,,1.33,0.000000,,2013-01-18 10:03:00,
2013-01-18 05:33:00,27.0,25.0,30.64,SSW,203,2.0,10.0,92,0.00,,,1.31,0.000000,,2013-01-18 10:33:00,
2013-01-18 05:43:00,27.0,25.0,30.64,SSW,203,2.0,10.0,92,0.00,,,1.31,0.000000,,2013-01-18 10:43:00,
2013-01-18 05:53:00,27.0,25.0,30.64,SSW,203,2.0,10.0,92,0.00,,,1.31,0.000000,,2013-01-18 10:53:00,
2013-01-18 06:03:00,27.0,25.0,30.64,SSW,203,2.0,10.0,92,0.00,,,1.31,0.000000,,2013-01-18 11:03:00,
2013-01-18 06:33:00,26.0,24.0,30.66,ENE,74,2.0,9.0,92,0.00,,,1.30,0.000000,,2013-01-18 11:33:00,
2013-01-18 06:43:00,26.0,24.0,30.66,ENE,74,2.0,9.0,92,0.00,,,1.30,0.000000,,2013-01-18 11:43:00,
2013-01-18 06:53:00,26.0,24.0,30.66,ENE,74,2.0,9.0,92,0.00,,,1.30,0.000000,,2013-01-18 11:53:00,
2013-01-18 07:03:00,26.0,24.0,30.66,ENE,74,2.0,9.0,92,0.00,,,1.30,0.000000,,2013-01-18 12:03:00,
2013-01-18 07:33:00,26.0,24.0,30.68,ENE,72,1.0,9.0,91,0.00,,,1.26,0.000000,,2013-01-18 12:33:00,
2013-01-18 07:43:00,26.0,24.0,30.68,ENE,72,1.0,9.0,91,0.00,,,1.26,0.000000,,2013-01-18 12:43:00,
2013-01-18 07:53:00,26.0,24.0,30.68,ENE,72,1.0,9.0,91,0.00,,,1.26,0.000000,,2013-01-18 12:53:00,
2013-01-18 08:03:00,26.0,24.0,30.68,ENE,72,1.0,9.0,91,0.00,,,1.26,0.000000,,2013-01-18 13:03:00,
2013-01-18 08:33:00,28.0,25.0,30.71,NE,52,4.0,15.0,88,0.00,,,1.18,3.000000,,2013-01-18 13:33:00,
2013-01-18 08:43:00,28.0,25.0,30.71,NE,52,4.0,15.0,88,0.00,,,1.18,3.000000,,2013-01-18 13:43:00,
2013-01-18 08:53:00,28.0,25.0,30.71,NE,52,4.0,15.0,88,0.00,,,1.18,3.000000,,2013-01-18 13:53:00,
2013-01-18 09:03:00,28.0,25.0,30.71,NE,52,4.0,15.0,88,0.00,,,1.18,3.000000,,2013-01-18 14:03:00,
2013-01-18 09:34:00,33.0,25.0,30.75,NNW,328,4.0,12.0,71,0.00,,,1.09,137.000000,,2013-01-18 14:34:00,
2013-01-18 09:43:00,33.0,25.0,30.75,NNW,328,4.0,12.0,71,0.00,,,1.09,137.000000,,2013-01-18 14:43:00,
2013-01-18 09:53:00,33.0,25.0,30.75,NNW,328,4.0,12.0,71,0.00,,,1.09,137.000000,,2013-01-18 14:53:00,
2013-01-18 10:03:00,33.0,25.0,30.75,NNW,328,4.0,12.0,71,0.00,,,1.09,137.000000,,2013-01-18 15:03:00,
2013-01-18 10:34:00,37.0,27.0,30.79,WNW,290,5.0,11.0,66,0.00,,,1.00,301.000000,,2013-01-18 15:34:00,
2013-01-18 10:43:00,37.0,27.0,30.79,WNW,290,5.0,11.0,66,0.00,,,1.00,301.000000,,2013-01-18 15:43:00,
2013-01-18 10:54:00,37.0,27.0,30.79,WNW,290,5.0,11.0,66,0.00,,,1.00,301.000000,,2013-01-18 15:54:00,
2013-01-18 11:03:00,37.0,27.0,30.79,WNW,290,5.0,11.0,66,0.00,,,1.00,301.000000,,2013-01-18 16:03:00,
2013-01-18 11:33:00,40.0,28.0,30.80,WNW,301,4.0,12.0,63,0.00,,,0.96,342.000000,,2013-01-18 16:33:00,
2013-01-18 11:43:00,40.0,28.0,30.80,WNW,301,4.0,12.0,63,0.00,,,0.96,342.000000,,2013-01-18 16:43:00,
2013-01-18 11:53:00,40.0,28.0,30.80,WNW,301,4.0,12.0,63,0.00,,,0.96,342.000000,,2013-01-18 16:53:00,
2013-01-18 12:03:00,40.0,28.0,30.80,WNW,301,4.0,12.0,63,0.00,,,0.96,342.000000,,2013-01-18 17:03:00,
2013-01-18 12:34:00,42.0,26.0,30.77,NNE,23,3.0,10.0,52,0.00,,,0.91,509.000000,,2013-01-18 17:34:00,
2013-01-18 12:43:00,42.0,26.0,30.77,NNE,23,3.0,10.0,52,0.00,,,0.91,509.000000,,2013-01-18 17:43:00,
2013-01-18 12:53:00,42.0,26.0,30.77,NNE,23,3.0,10.0,52,0.00,,,0.91,509.000000,,2013-01-18 17:53:00,
2013-01-18 13:03:00,42.0,26.0,30.77,NNE,23,3.0,10.0,52,0.00,,,0.91,509.000000,,2013-01-18 18:03:00,
2013-01-18 13:34:00,46.0,24.0,30.74,North,7,4.0,7.0,42,0.00,,,0.79,549.000000,,2013-01-18 18:34:00,
2013-01-18 13:43:00,46.0,24.0,30.74,North,7,4.0,7.0,42,0.00,,,0.79,549.000000,,2013-01-18 18:43:00,
2013-01-18 13:53:00,46.0,24.0,30.74,North,7,4.0,7.0,42,0.00,,,0.79,549.000000,,2013-01-18 18:53:00,
2013-01-18 14:03:00,46.0,24.0,30.74,North,7,4.0,7.0,42,0.00,,,0.79,549.000000,,2013-01-18 19:03:00,
2013-01-18 14:33:00,50.0,24.0,30.73,SSW,195,3.0,8.0,36,0.00,,,0.61,531.000000,,2013-01-18 19:33:00,
2013-01-18 14:43:00,50.0,24.0,30.73,SSW,195,3.0,8.0,36,0.00,,,0.61,531.000000,,2013-01-18 19:43:00,
2013-01-18 14:53:00,50.0,24.0,30.73,SSW,195,3.0,8.0,36,0.00,,,0.61,531.000000,,2013-01-18 19:53:00,
2013-01-18 15:03:00,50.0,24.0,30.73,SSW,195,3.0,8.0,36,0.00,,,0.61,531.000000,,2013-01-18 20:03:00,
2013-01-18 15:33:00,51.0,19.0,30.72,NNW,348,3.0,9.0,28,0.00,,,0.39,405.000000,,2013-01-18 20:33:00,
2013-01-18 15:43:00,51.0,19.0,30.72,NNW,348,3.0,9.0,28,0.00,,,0.39,405.000000,,2013-01-18 20:43:00,
2013-01-18 15:53:00,51.0,19.0,30.72,NNW,348,3.0,9.0,28,0.00,,,0.39,405.000000,,2013-01-18 20:53:00,
2013-01-18 16:03:00,51.0,19.0,30.72,NNW,348,3.0,9.0,28,0.00,,,0.39,405.000000,,2013-01-18 21:03:00,
2013-01-18 16:33:00,52.0,19.0,30.73,ENE,64,3.0,7.0,27,0.00,,,0.21,31.000000,,2013-01-18 21:33:00,
2013-01-18 16:43:00,52.0,19.0,30.73,ENE,64,3.0,7.0,27,0.00,,,0.21,31.000000,,2013-01-18 21:43:00,
2013-01-18 16:53:00,52.0,19.0,30.73,ENE,64,3.0,7.0,27,0.00,,,0.21,31.000000,,2013-01-18 21:53:00,
2013-01-18 17:03:00,52.0,19.0,30.73,ENE,64,3.0,7.0,27,0.00,,,0.21,31.000000,,2013-01-18 22:03:00,
2013-01-18 17:33:00,48.0,25.0,30.74,North,352,2.0,9.0,40,0.00,,,0.13,126.000000,,2013-01-18 22:33:00,
2013-01-18 17:43:00,48.0,25.0,30.74,North,352,2.0,9.0,40,0.00,,,0.13,126.000000,,2013-01-18 22:43:00,
2013-01-18 17:53:00,48.0,25.0,30.74,North,352,2.0,9.0,40,0.00,,,0.13,126.000000,,2013-01-18 22:53:00,
2013-01-18 18:03:00,48.0,25.0,30.74,North,352,2.0,9.0,40,0.00,,,0.13,126.000000,,2013-01-18 23:03:00,
2013-01-18 18:33:00,35.0,27.0,30.75,WNW,289,1.0,4.0,72,0.01,,,0.11,27.000000,,2013-01-18 23:33:00,
2013-01-18 18:43:00,35.0,27.0,30.75,WNW,289,1.0,4.0,72,0.01,,,0.11,27.000000,,2013-01-18 23:43:00,
2013-01-18 18:53:00,35.0,27.0,30.75,WNW,289,1.0,4.0,72,0.01,,,0.11,27.000000,,2013-01-18 23:53:00,
2013-01-18 19:02:00,35.0,27.0,30.75,WNW,289,1.0,4.0,72,0.01,,,0.11,27.000000,,2013-01-19 00:02:00,
2013-01-18 19:33:00,33.0,30.0,30.76,NNW,331,1.0,6.0,88,0.00,,,0.04,0.000000,,2013-01-19 00:33:00,
2013-01-18 19:43:00,33.0,30.0,30.76,NNW,331,1.0,6.0,88,0.00,,,0.04,0.000000,,2013-01-19 00:43:00,
2013-01-18 19:53:00,33.0,30.0,30.76,NNW,331,1.0,6.0,88,0.00,,,0.04,0.000000,,2013-01-19 00:53:00,
2013-01-18 20:03:00,33.0,30.0,30.76,NNW,331,1.0,6.0,88,0.00,,,0.04,0.000000,,2013-01-19 01:03:00,
2013-01-18 20:33:00,31.0,29.0,30.76,SE,135,1.0,2.0,92,0.00,,,0.02,0.000000,,2013-01-19 01:33:00,
2013-01-18 20:43:00,31.0,29.0,30.76,SE,135,1.0,2.0,92,0.00,,,0.02,0.000000,,2013-01-19 01:43:00,
2013-01-18 20:53:00,31.0,29.0,30.76,SE,135,1.0,2.0,92,0.00,,,0.02,0.000000,,2013-01-19 01:53:00,
2013-01-18 21:03:00,31.0,29.0,30.76,SE,135,1.0,2.0,92,0.00,,,0.02,0.000000,,2013-01-19 02:03:00,
2013-01-18 21:33:00,30.0,28.0,30.76,SW,224,1.0,3.0,94,0.00,,,0.02,0.000000,,2013-01-19 02:33:00,
2013-01-18 21:43:00,30.0,28.0,30.76,SW,224,1.0,3.0,94,0.00,,,0.02,0.000000,,2013-01-19 02:43:00,
2013-01-18 21:53:00,30.0,28.0,30.76,SW,224,1.0,3.0,94,0.00,,,0.02,0.000000,,2013-01-19 02:53:00,
2013-01-18 22:03:00,30.0,28.0,30.76,SW,224,1.0,3.0,94,0.00,,,0.02,0.000000,,2013-01-19 03:03:00,
2013-01-18 22:33:00,29.0,28.0,30.76,WSW,241,1.0,3.0,96,0.00,,,0.02,0.000000,,2013-01-19 03:33:00,
2013-01-18 22:44:00,29.0,28.0,30.76,WSW,241,1.0,3.0,96,0.00,,,0.02,0.000000,,2013-01-19 03:44:00,
2013-01-18 22:53:00,29.0,28.0,30.76,WSW,241,1.0,3.0,96,0.00,,,0.02,0.000000,,2013-01-19 03:53:00,
2013-01-18 23:02:00,29.0,28.0,30.76,WSW,241,1.0,3.0,96,0.00,,,0.02,0.000000,,2013-01-19 04:02:00,
2013-01-18 23:33:00,29.0,28.0,30.75,East,79,1.0,2.0,97,0.00,,,0.01,0.000000,,2013-01-19 04:33:00,
2013-01-18 23:43:00,29.0,28.0,30.75,East,79,1.0,2.0,97,0.00,,,0.01,0.000000,,2013-01-19 04:43:00,
2013-01-18 23:53:00,29.0,28.0,30.75,East,79,1.0,2.0,97,0.00,,,0.01,0.000000,,2013-01-19 04:53:00,